Time;durP1;ratioP1;P1;durP2;ratioP2;P2;SDS_P1;SDS_P2;PMS_P1;PMS_P2;Temp;Humidity;BMP_temperature;BMP_pressure;BME280_temperature;BME280_humidity;BME280_pressure;Samples;Min_cycle;Max_cycle;Signal;HPM_P1;HPM_P2
2020/12/30 00:00:49;;;;;;;10.88;2.30;;;12.70;90.70;;;;;;5011996;28;20037;-78
2020/12/30 00:03:53;;;;;;;12.20;3.40;;;12.80;90.90;;;;;;5011648;28;20072;-79
2020/12/30 00:06:57;;;;;;;10.57;3.67;;;12.80;91.00;;;;;;5012432;28;20045;-78
2020/12/30 00:10:07;;;;;;;11.00;2.95;;;12.80;91.10;;;;;;5011310;28;20044;-78
2020/12/30 00:13:11;;;;;;;17.65;4.00;;;12.80;91.30;;;;;;5011737;28;20053;-78
2020/12/30 00:16:15;;;;;;;25.15;5.97;;;12.90;91.70;;;;;;5011175;28;20504;-80
2020/12/30 00:19:19;;;;;;;18.42;3.42;;;12.90;92.60;;;;;;5011874;28;20049;-80
2020/12/30 00:22:23;;;;;;;13.25;2.42;;;12.80;92.70;;;;;;5012091;28;20532;-79
2020/12/30 00:25:28;;;;;;;13.55;2.60;;;12.70;90.70;;;;;;5011612;28;20417;-79
2020/12/30 00:28:32;;;;;;;17.67;2.67;;;12.70;90.80;;;;;;5011191;28;20049;-79
2020/12/30 00:31:36;;;;;;;7.35;2.30;;;12.70;90.70;;;;;;5011105;28;20053;-78
2020/12/30 00:34:43;;;;;;;14.85;2.67;;;12.70;91.00;;;;;;5011258;28;20041;-80
2020/12/30 00:37:50;;;;;;;15.60;2.85;;;12.80;91.80;;;;;;5011708;28;20504;-79
2020/12/30 00:40:57;;;;;;;17.88;3.88;;;12.70;92.30;;;;;;5011760;28;20037;-79
2020/12/30 00:44:01;;;;;;;16.40;3.78;;;12.70;92.50;;;;;;5010846;28;20044;-79
2020/12/30 00:47:05;;;;;;;18.67;4.43;;;12.70;92.70;;;;;;5011735;28;20045;-79
2020/12/30 00:50:09;;;;;;;14.80;3.83;;;12.70;92.80;;;;;;5011408;28;20053;-78
2020/12/30 00:53:19;;;;;;;21.73;3.80;;;12.70;93.00;;;;;;5010771;28;20508;-79
2020/12/30 00:56:23;;;;;;;20.35;3.13;;;12.70;93.30;;;;;;5010816;28;20045;-79
2020/12/30 00:59:27;;;;;;;18.63;3.58;;;12.60;93.80;;;;;;5010558;28;20053;-79
2020/12/30 01:02:33;;;;;;;14.20;2.38;;;12.70;94.00;;;;;;5010666;28;20040;-78
2020/12/30 01:05:40;;;;;;;18.25;3.10;;;12.70;93.20;;;;;;5010693;28;20049;-78
2020/12/30 01:08:44;;;;;;;17.67;2.97;;;12.80;93.00;;;;;;5011459;28;20056;-78
2020/12/30 01:11:48;;;;;;;15.27;2.55;;;12.80;92.30;;;;;;5010831;28;20053;-79
2020/12/30 01:14:52;;;;;;;14.32;2.25;;;12.90;91.90;;;;;;5011146;28;20053;-78
2020/12/30 01:17:56;;;;;;;10.32;2.17;;;12.90;91.70;;;;;;5011257;28;20100;-78
2020/12/30 01:21:01;;;;;;;15.50;2.58;;;13.00;91.50;;;;;;5011456;28;20037;-78
2020/12/30 01:24:05;;;;;;;15.38;3.05;;;13.00;91.40;;;;;;5011308;28;20053;-79
2020/12/30 01:27:09;;;;;;;13.65;2.40;;;13.00;91.30;;;;;;5010421;28;20041;-79
2020/12/30 01:30:13;;;;;;;15.40;3.10;;;13.00;91.00;;;;;;5021829;28;20049;-79
2020/12/30 01:33:17;;;;;;;16.42;2.65;;;13.00;90.20;;;;;;5011172;28;20057;-80
2020/12/30 01:36:21;;;;;;;17.35;2.85;;;13.00;89.40;;;;;;5011011;28;20401;-80
2020/12/30 01:39:28;;;;;;;13.32;2.78;;;13.10;89.50;;;;;;5010323;28;20057;-80
2020/12/30 01:42:49;;;;;;;18.63;3.78;;;13.10;89.60;;;;;;5010005;28;20413;-79
2020/12/30 01:45:53;;;;;;;10.10;3.03;;;13.10;88.80;;;;;;5014499;28;20040;-80
2020/12/30 01:48:57;;;;;;;16.58;2.85;;;13.10;88.50;;;;;;5014608;28;20037;-79
2020/12/30 01:52:01;;;;;;;12.68;3.30;;;13.20;89.00;;;;;;5014497;28;20060;-80
2020/12/30 01:55:05;;;;;;;13.35;2.42;;;13.10;87.70;;;;;;5014710;28;20070;-80
2020/12/30 01:58:12;;;;;;;12.38;3.20;;;13.10;86.00;;;;;;5014727;28;20496;-79
2020/12/30 02:01:19;;;;;;;9.27;1.98;;;13.10;87.30;;;;;;5014503;28;20113;-79
2020/12/30 02:04:46;;;;;;;11.25;2.10;;;12.90;86.80;;;;;;5012806;28;20045;-79
2020/12/30 02:07:51;;;;;;;13.48;2.17;;;12.70;87.90;;;;;;5014465;28;20044;-78
2020/12/30 02:10:55;;;;;;;9.65;2.00;;;12.60;87.70;;;;;;5014315;28;20048;-79
2020/12/30 02:14:04;;;;;;;12.85;2.13;;;12.50;88.20;;;;;;5014441;28;20064;-79
2020/12/30 02:17:16;;;;;;;11.77;2.35;;;12.40;89.00;;;;;;5014233;28;20629;-79
2020/12/30 02:20:21;;;;;;;9.13;2.08;;;12.30;89.50;;;;;;5014032;28;20045;-79
2020/12/30 02:23:27;;;;;;;11.18;1.80;;;12.30;89.90;;;;;;5014302;28;20045;-79
2020/12/30 02:26:30;;;;;;;9.85;1.92;;;12.30;90.10;;;;;;5014239;28;20049;-79
2020/12/30 02:29:35;;;;;;;9.02;1.80;;;12.30;90.30;;;;;;5014207;28;20041;-79
2020/12/30 02:32:40;;;;;;;11.10;2.08;;;12.30;89.40;;;;;;5014082;28;20061;-79
2020/12/30 02:35:44;;;;;;;12.05;2.03;;;12.40;85.70;;;;;;5013970;28;20057;-79
2020/12/30 02:38:54;;;;;;;6.90;1.48;;;12.50;84.40;;;;;;5013703;28;20045;-79
2020/12/30 02:41:58;;;;;;;4.53;1.10;;;12.50;83.90;;;;;;5012822;28;20041;-80
2020/12/30 02:45:06;;;;;;;8.38;1.05;;;12.50;81.60;;;;;;5013814;28;20052;-80
2020/12/30 02:48:09;;;;;;;7.00;1.88;;;12.50;79.90;;;;;;5013442;28;20041;-80
2020/12/30 02:51:13;;;;;;;6.70;1.10;;;12.50;80.70;;;;;;5001159;28;20061;-80
2020/12/30 02:54:18;;;;;;;12.23;2.75;;;12.50;81.90;;;;;;5013454;28;20044;-80
2020/12/30 02:57:24;;;;;;;8.52;1.75;;;12.50;82.30;;;;;;5013319;28;20144;-78
2020/12/30 03:00:28;;;;;;;11.45;1.90;;;12.50;83.90;;;;;;5013732;28;20394;-79
2020/12/30 03:03:32;;;;;;;15.25;2.30;;;12.50;85.20;;;;;;5012679;28;20390;-79
2020/12/30 03:06:36;;;;;;;12.30;2.08;;;12.50;86.90;;;;;;5013462;28;20053;-79
2020/12/30 03:09:40;;;;;;;14.80;1.98;;;12.50;88.30;;;;;;5013138;28;20516;-79
2020/12/30 03:12:47;;;;;;;14.80;3.00;;;12.50;88.90;;;;;;5012865;28;20049;-79
2020/12/30 03:15:52;;;;;;;10.80;1.85;;;12.40;89.80;;;;;;5000907;28;20116;-80
2020/12/30 03:18:56;;;;;;;13.65;2.50;;;12.40;90.70;;;;;;5012995;28;20049;-80
2020/12/30 03:22:00;;;;;;;11.88;2.40;;;12.30;90.90;;;;;;5013115;28;20041;-80
2020/12/30 03:25:04;;;;;;;20.23;2.30;;;12.20;91.30;;;;;;5012378;28;20036;-80
2020/12/30 03:28:09;;;;;;;12.60;2.53;;;12.10;91.70;;;;;;5012847;28;20057;-80
2020/12/30 03:31:13;;;;;;;11.00;2.25;;;12.10;92.10;;;;;;5011717;28;20512;-80
2020/12/30 03:34:17;;;;;;;17.05;2.13;;;12.10;92.00;;;;;;5012905;28;20049;-80
2020/12/30 03:37:21;;;;;;;15.57;2.30;;;12.10;92.10;;;;;;5012937;28;20559;-80
2020/12/30 03:40:25;;;;;;;15.18;2.50;;;12.00;92.20;;;;;;5012830;28;20053;-80
2020/12/30 03:43:29;;;;;;;12.93;2.47;;;12.00;91.60;;;;;;5012628;28;20044;-79
2020/12/30 03:46:33;;;;;;;6.88;2.20;;;12.00;91.80;;;;;;5000691;28;20052;-80
2020/12/30 03:49:37;;;;;;;12.52;2.70;;;12.00;91.90;;;;;;5012653;28;20045;-79
2020/12/30 03:52:41;;;;;;;15.60;2.20;;;11.80;91.70;;;;;;5000747;28;20405;-79
2020/12/30 03:55:45;;;;;;;17.10;2.47;;;11.80;92.20;;;;;;5011831;28;20045;-79
2020/12/30 03:58:49;;;;;;;13.63;1.98;;;11.80;92.10;;;;;;5022748;28;20048;-80
2020/12/30 04:01:53;;;;;;;12.15;2.70;;;11.90;91.90;;;;;;5012127;28;20041;-79
2020/12/30 04:04:56;;;;;;;13.65;2.08;;;11.90;92.00;;;;;;5012370;28;20426;-80
2020/12/30 04:08:00;;;;;;;15.07;2.63;;;11.90;92.50;;;;;;5011321;28;20041;-79
2020/12/30 04:11:04;;;;;;;15.45;2.60;;;11.90;92.80;;;;;;4999946;28;20056;-79
2020/12/30 04:14:08;;;;;;;12.68;2.78;;;11.90;92.50;;;;;;5012115;28;20075;-78
2020/12/30 04:17:12;;;;;;;11.65;2.38;;;12.00;92.60;;;;;;5011853;28;20033;-78
2020/12/30 04:20:16;;;;;;;15.30;2.83;;;12.00;92.40;;;;;;5011394;28;20049;-78
2020/12/30 04:23:20;;;;;;;11.45;2.85;;;12.00;92.40;;;;;;5011940;28;20049;-79
2020/12/30 04:26:24;;;;;;;13.18;2.47;;;12.00;92.50;;;;;;5011197;28;20067;-78
2020/12/30 04:29:28;;;;;;;14.15;3.17;;;12.00;92.50;;;;;;5011937;28;20045;-78
2020/12/30 04:32:32;;;;;;;10.80;2.35;;;12.00;92.60;;;;;;5011551;28;20052;-79
2020/12/30 04:35:36;;;;;;;9.60;2.40;;;12.00;92.80;;;;;;5011881;28;20033;-79
2020/12/30 04:38:41;;;;;;;13.20;1.83;;;12.00;92.80;;;;;;5011128;28;20397;-79
2020/12/30 04:41:47;;;;;;;13.27;1.98;;;11.90;92.80;;;;;;5010701;28;20044;-78
2020/12/30 04:44:54;;;;;;;10.93;2.20;;;11.80;93.00;;;;;;5010700;28;20056;-79
2020/12/30 04:48:00;;;;;;;13.75;1.92;;;11.70;93.10;;;;;;5011488;28;20053;-79
2020/12/30 04:51:04;;;;;;;7.80;1.30;;;11.60;93.20;;;;;;5010606;28;20057;-78
2020/12/30 04:54:08;;;;;;;13.80;1.73;;;11.60;93.40;;;;;;5011800;28;20050;-78
2020/12/30 04:57:39;;;;;;;14.00;2.20;;;11.70;92.80;;;;;;5011371;28;20060;-78
2020/12/30 05:00:44;;;;;;;14.67;2.63;;;11.80;93.40;;;;;;5015318;28;20045;-78
2020/12/30 05:03:49;;;;;;;18.13;2.17;;;11.60;94.00;;;;;;5011750;28;20476;-79
2020/12/30 05:06:57;;;;;;;12.10;2.10;;;11.50;94.70;;;;;;5011582;28;20049;-79
2020/12/30 05:10:02;;;;;;;12.95;2.10;;;11.30;95.00;;;;;;5011594;28;20045;-78
2020/12/30 05:13:07;;;;;;;11.80;2.10;;;11.30;95.20;;;;;;5011056;28;20528;-77
2020/12/30 05:16:14;;;;;;;15.25;2.22;;;11.40;95.30;;;;;;5011376;28;20033;-78
2020/12/30 05:19:18;;;;;;;10.48;1.98;;;11.40;94.90;;;;;;5013883;28;20068;-77
2020/12/30 05:22:22;;;;;;;18.23;1.80;;;11.40;95.00;;;;;;5015444;28;20645;-76
2020/12/30 05:25:26;;;;;;;11.63;1.80;;;11.40;95.10;;;;;;5015671;28;20057;-78
2020/12/30 05:28:32;;;;;;;13.40;1.77;;;11.50;94.30;;;;;;5015428;28;20060;-76
2020/12/30 05:31:36;;;;;;;10.32;1.50;;;11.50;94.40;;;;;;5015223;28;20061;-77
2020/12/30 05:34:40;;;;;;;6.15;1.63;;;11.60;93.80;;;;;;5015335;28;20045;-77
2020/12/30 05:37:47;;;;;;;9.18;1.30;;;11.60;93.30;;;;;;5015203;28;20045;-78
2020/12/30 05:40:51;;;;;;;7.30;1.75;;;11.60;93.10;;;;;;5015092;28;20388;-76
2020/12/30 05:43:54;;;;;;;13.68;1.90;;;11.70;92.90;;;;;;5014070;28;20049;-77
2020/12/30 05:47:11;;;;;;;8.23;1.90;;;11.70;92.80;;;;;;5014820;28;20049;-78
2020/12/30 05:50:25;;;;;;;8.38;1.60;;;11.60;92.80;;;;;;5014924;28;20499;-77
2020/12/30 05:53:29;;;;;;;7.25;1.75;;;11.50;92.80;;;;;;5014936;28;20057;-78
2020/12/30 05:56:38;;;;;;;7.25;1.50;;;11.40;92.70;;;;;;5013801;28;20037;-76
2020/12/30 05:59:44;;;;;;;13.40;2.22;;;11.40;92.80;;;;;;5014036;28;20057;-76
2020/12/30 06:02:48;;;;;;;5.82;1.67;;;11.40;92.60;;;;;;5014798;28;20401;-76
2020/12/30 06:05:55;;;;;;;3.40;1.17;;;11.50;92.40;;;;;;5013463;28;20048;-77
2020/12/30 06:09:01;;;;;;;16.08;1.70;;;11.40;92.30;;;;;;5013696;28;20504;-77
2020/12/30 06:12:07;;;;;;;8.63;1.65;;;11.40;92.60;;;;;;5013377;28;20057;-77
2020/12/30 06:15:15;;;;;;;8.43;2.30;;;11.50;92.20;;;;;;5014511;28;20052;-78
2020/12/30 06:18:23;;;;;;;8.10;1.58;;;11.50;92.20;;;;;;5014516;28;20041;-78
2020/12/30 06:21:27;;;;;;;8.75;1.83;;;11.50;92.30;;;;;;5014070;28;20041;-77
2020/12/30 06:24:31;;;;;;;8.27;1.80;;;11.50;92.50;;;;;;5014149;28;20045;-77
2020/12/30 06:27:40;;;;;;;6.60;2.42;;;11.50;93.20;;;;;;5014039;28;20048;-78
2020/12/30 06:30:48;;;;;;;7.67;2.30;;;11.50;92.30;;;;;;5013023;28;20061;-75
2020/12/30 06:33:55;;;;;;;61.25;33.97;;;11.60;92.70;;;;;;5013932;28;20288;-75
2020/12/30 06:37:03;;;;;;;7.38;2.13;;;11.70;92.90;;;;;;4990703;28;20037;-73
2020/12/30 06:40:27;;;;;;;5.45;1.85;;;11.70;91.80;;;;;;5013672;28;20049;-75
2020/12/30 06:43:38;;;;;;;5.03;2.10;;;11.70;91.40;;;;;;5014066;28;20045;-74
2020/12/30 06:46:42;;;;;;;6.40;1.97;;;11.60;91.60;;;;;;5014009;28;20061;-73
2020/12/30 06:49:46;;;;;;;66.13;41.80;;;11.60;91.70;;;;;;5013063;28;20814;-72
2020/12/30 06:52:50;;;;;;;8.98;2.40;;;11.60;91.70;;;;;;5012706;28;20053;-72
2020/12/30 06:55:56;;;;;;;5.63;1.58;;;11.70;91.30;;;;;;5013761;28;20052;-75
2020/12/30 06:59:00;;;;;;;5.63;1.48;;;11.60;90.80;;;;;;5013284;28;20044;-74
2020/12/30 07:02:08;;;;;;;6.00;1.73;;;11.60;90.70;;;;;;5013594;28;20049;-75
2020/12/30 07:05:20;;;;;;;5.03;1.63;;;11.60;90.40;;;;;;5013489;28;20418;-73
2020/12/30 07:08:37;;;;;;;41.50;7.38;;;11.60;90.00;;;;;;5013343;28;20532;-76
2020/12/30 07:11:51;;;;;;;44.88;6.75;;;11.70;91.70;;;;;;5011863;28;20061;-73
2020/12/30 07:14:57;;;;;;;21.95;2.97;;;12.00;92.50;;;;;;5012975;28;20592;-72
2020/12/30 07:18:07;;;;;;;39.63;5.20;;;12.10;90.40;;;;;;5013030;28;20386;-71
2020/12/30 07:21:13;;;;;;;6.47;1.85;;;12.10;90.40;;;;;;5013059;28;20068;-73
2020/12/30 07:24:21;;;;;;;10.80;1.83;;;12.00;89.50;;;;;;5012788;28;20069;-70
2020/12/30 07:27:29;;;;;;;11.52;2.25;;;12.00;89.40;;;;;;5012239;28;20049;-78
2020/12/30 07:30:33;;;;;;;6.45;1.73;;;12.00;90.50;;;;;;5011913;28;20040;-76
2020/12/30 07:33:37;;;;;;;6.15;1.80;;;11.90;90.40;;;;;;5023433;28;20057;-74
2020/12/30 07:36:43;;;;;;;7.30;2.40;;;11.80;90.50;;;;;;5012063;28;20040;-76
2020/12/30 07:39:49;;;;;;;6.95;2.50;;;11.80;90.60;;;;;;5012248;28;20044;-78
2020/12/30 07:42:59;;;;;;;5.00;1.80;;;11.80;90.80;;;;;;5012608;28;20033;-79
2020/12/30 07:46:21;;;;;;;4.47;1.95;;;11.80;90.50;;;;;;5012042;28;20045;-76
2020/12/30 07:49:25;;;;;;;6.97;1.77;;;11.80;90.60;;;;;;5012819;28;20037;-79
2020/12/30 07:52:29;;;;;;;44.50;25.13;;;11.80;90.50;;;;;;5012408;28;20052;-78
2020/12/30 07:55:34;;;;;;;7.55;2.45;;;11.80;90.90;;;;;;5011413;28;20068;-80
2020/12/30 07:58:45;;;;;;;5.07;2.67;;;11.80;91.30;;;;;;5012697;28;20049;-78
2020/12/30 08:01:57;;;;;;;9.18;2.20;;;11.80;91.50;;;;;;5012226;28;20045;-85
2020/12/30 08:05:02;;;;;;;9.80;1.70;;;11.90;91.20;;;;;;5012457;28;20053;-83
2020/12/30 08:08:10;;;;;;;5.00;1.30;;;12.00;90.70;;;;;;5012301;28;20045;-79
2020/12/30 08:11:20;;;;;;;9.48;1.63;;;12.10;89.60;;;;;;5012053;28;20052;-79
2020/12/30 08:14:28;;;;;;;10.25;1.65;;;12.20;89.30;;;;;;5012038;28;20053;-75
2020/12/30 08:17:32;;;;;;;6.85;1.95;;;12.30;89.30;;;;;;5011359;28;20048;-77
2020/12/30 08:20:39;;;;;;;10.52;2.00;;;12.40;89.30;;;;;;5011628;28;20524;-82
2020/12/30 08:23:43;;;;;;;8.70;1.70;;;12.40;88.80;;;;;;5012328;28;20512;-77
2020/12/30 08:26:47;;;;;;;12.23;2.00;;;12.50;88.00;;;;;;5012219;28;20053;-79
2020/12/30 08:29:52;;;;;;;6.53;1.77;;;12.60;87.60;;;;;;5012185;28;20169;-75
2020/12/30 08:33:00;;;;;;;8.25;1.63;;;12.70;87.50;;;;;;5011671;28;20061;-75
2020/12/30 08:36:23;;;;;;;10.02;2.47;;;12.70;88.10;;;;;;5012191;28;20053;-75
2020/12/30 08:39:28;;;;;;;10.10;3.47;;;12.80;88.30;;;;;;5011792;28;20060;-75
2020/12/30 08:42:44;;;;;;;10.57;3.92;;;12.90;88.70;;;;;;5011291;28;20045;-75
2020/12/30 08:45:48;;;;;;;10.55;2.67;;;12.90;89.40;;;;;;5010703;28;20057;-75
2020/12/30 08:48:56;;;;;;;8.77;2.42;;;13.00;88.40;;;;;;5010647;28;20049;-80
2020/12/30 08:52:17;;;;;;;11.32;1.98;;;13.00;86.70;;;;;;5011310;28;20048;-80
2020/12/30 08:55:21;;;;;;;20.45;3.25;;;13.10;85.70;;;;;;5011655;28;20100;-79
2020/12/30 08:58:25;;;;;;;7.80;1.50;;;13.10;85.20;;;;;;5011551;28;20037;-73
2020/12/30 09:01:30;;;;;;;9.18;1.52;;;13.10;85.20;;;;;;5011234;28;20053;-74
2020/12/30 09:04:34;;;;;;;6.53;2.17;;;13.20;85.50;;;;;;5011234;28;20041;-73
2020/12/30 09:07:39;;;;;;;16.08;2.67;;;13.20;86.00;;;;;;5010737;28;20045;-75
2020/12/30 09:10:44;;;;;;;7.00;2.00;;;13.20;86.40;;;;;;5011483;28;20044;-74
2020/12/30 09:13:48;;;;;;;15.38;1.65;;;13.30;86.00;;;;;;5011403;28;20057;-71
2020/12/30 09:16:58;;;;;;;16.83;1.65;;;13.30;85.60;;;;;;5010655;28;20049;-79
2020/12/30 09:20:16;;;;;;;7.38;1.40;;;13.30;86.00;;;;;;5016370;28;20053;-76
2020/12/30 09:23:24;;;;;;;14.00;2.78;;;13.30;86.00;;;;;;5012216;28;20049;-73
2020/12/30 09:26:29;;;;;;;8.13;2.55;;;13.40;86.50;;;;;;5011263;28;20044;-73
2020/12/30 09:29:33;;;;;;;10.88;3.38;;;13.40;85.50;;;;;;5011314;28;20515;-75
2020/12/30 09:32:39;;;;;;;11.48;1.50;;;13.50;84.50;;;;;;5011273;28;20057;-78
2020/12/30 09:35:46;;;;;;;9.15;1.73;;;13.80;82.40;;;;;;5010326;28;20041;-75
2020/12/30 09:38:56;;;;;;;17.00;1.80;;;14.10;80.40;;;;;;5015040;28;20049;-87
2020/12/30 09:42:02;;;;;;;10.50;2.05;;;14.40;79.70;;;;;;5011219;28;20037;-76
2020/12/30 09:45:09;;;;;;;9.65;2.60;;;14.40;79.30;;;;;;5012193;28;20049;-84
2020/12/30 09:48:19;;;;;;;10.10;2.17;;;14.30;79.00;;;;;;5010789;28;20049;-80
2020/12/30 09:51:23;;;;;;;15.55;3.40;;;14.20;78.00;;;;;;5011265;28;20040;-78
2020/12/30 09:54:27;;;;;;;6.35;1.60;;;14.10;76.90;;;;;;5013602;28;20072;-82
2020/12/30 09:57:32;;;;;;;9.20;2.17;;;14.10;77.30;;;;;;5011199;28;20520;-83
2020/12/30 10:00:35;;;;;;;9.07;2.33;;;14.00;78.00;;;;;;5010698;28;20053;-77
2020/12/30 10:03:39;;;;;;;9.32;2.47;;;13.90;79.10;;;;;;5011122;28;20492;-80
2020/12/30 10:06:47;;;;;;;10.00;2.30;;;13.90;78.90;;;;;;5002219;28;20049;-80
2020/12/30 10:09:52;;;;;;;6.55;1.42;;;13.80;77.20;;;;;;5014835;28;20045;-81
2020/12/30 10:12:57;;;;;;;3.75;1.23;;;13.80;74.10;;;;;;5013343;28;20057;-78
2020/12/30 10:16:01;;;;;;;5.80;1.20;;;13.70;72.20;;;;;;5013829;28;20516;-77
2020/12/30 10:19:04;;;;;;;8.40;1.00;;;13.70;71.40;;;;;;5013738;28;20492;-76
2020/12/30 10:22:10;;;;;;;10.40;1.70;;;13.70;73.40;;;;;;5013589;28;20048;-76
2020/12/30 10:25:14;;;;;;;8.50;2.20;;;13.70;74.50;;;;;;5013873;28;20053;-83
2020/12/30 10:28:19;;;;;;;11.82;2.08;;;13.70;76.30;;;;;;5013961;28;20041;-85
2020/12/30 10:31:23;;;;;;;9.70;1.85;;;13.70;77.20;;;;;;5013861;28;20036;-82
2020/12/30 10:34:27;;;;;;;7.05;1.92;;;13.70;78.10;;;;;;5013353;28;20053;-81
2020/12/30 10:37:31;;;;;;;7.60;2.67;;;13.70;77.10;;;;;;5013676;28;20037;-75
2020/12/30 10:40:35;;;;;;;8.38;2.20;;;13.70;75.40;;;;;;5013295;28;20057;-75
2020/12/30 10:43:40;;;;;;;10.93;2.50;;;13.70;74.50;;;;;;5012964;28;20393;-79
2020/12/30 10:46:46;;;;;;;6.57;1.80;;;13.70;74.10;;;;;;5012827;28;20053;-81
2020/12/30 10:49:50;;;;;;;8.10;1.98;;;13.90;73.90;;;;;;5012821;28;20616;-79
2020/12/30 10:52:54;;;;;;;6.80;2.00;;;14.30;73.50;;;;;;5012634;28;20064;-79
2020/12/30 10:55:58;;;;;;;6.55;2.42;;;14.70;73.60;;;;;;5013482;28;20385;-77
2020/12/30 10:59:03;;;;;;;11.80;2.70;;;15.20;73.50;;;;;;5013199;28;20053;-78
2020/12/30 11:02:08;;;;;;;12.25;3.35;;;15.50;73.50;;;;;;5012311;28;20505;-74
2020/12/30 11:05:12;;;;;;;8.27;1.58;;;15.70;71.20;;;;;;5012893;28;20061;-76
2020/12/30 11:08:16;;;;;;;9.65;1.83;;;15.90;70.10;;;;;;5013497;28;20045;-75
2020/12/30 11:11:20;;;;;;;10.60;2.72;;;16.10;70.10;;;;;;5012809;28;20056;-76
2020/12/30 11:14:26;;;;;;;13.57;4.45;;;16.20;69.80;;;;;;5012383;28;20069;-73
2020/12/30 11:17:30;;;;;;;15.80;2.50;;;16.30;68.80;;;;;;5023088;28;20176;-76
2020/12/30 11:20:34;;;;;;;10.40;2.67;;;16.30;69.20;;;;;;5012823;28;20049;-72
2020/12/30 11:23:38;;;;;;;6.65;1.90;;;16.30;68.70;;;;;;5012787;28;20044;-77
2020/12/30 11:26:44;;;;;;;12.13;2.15;;;16.40;69.20;;;;;;5000838;28;20500;-76
2020/12/30 11:29:48;;;;;;;5.78;1.42;;;16.40;68.50;;;;;;5012920;28;20053;-77
2020/12/30 11:32:52;;;;;;;17.75;2.00;;;16.50;67.60;;;;;;5012565;28;20060;-76
2020/12/30 11:35:57;;;;;;;13.27;2.00;;;16.40;67.50;;;;;;5012806;28;20048;-76
2020/12/30 11:39:01;;;;;;;10.68;1.77;;;16.20;67.80;;;;;;5012265;28;20045;-76
2020/12/30 11:42:05;;;;;;;8.50;2.63;;;16.10;68.60;;;;;;5012468;28;20053;-78
2020/12/30 11:45:09;;;;;;;13.63;2.40;;;16.10;69.10;;;;;;5012565;28;20092;-75
2020/12/30 11:48:13;;;;;;;5.20;2.15;;;16.00;69.50;;;;;;5011354;28;20041;-78
2020/12/30 11:51:17;;;;;;;8.73;2.00;;;16.10;69.60;;;;;;5011476;28;20048;-76
2020/12/30 11:54:21;;;;;;;9.88;3.03;;;16.10;68.90;;;;;;5012438;28;20064;-76
2020/12/30 11:57:28;;;;;;;14.82;2.17;;;16.00;69.10;;;;;;5012365;28;20044;-72
2020/12/30 12:00:32;;;;;;;11.43;1.92;;;15.90;70.40;;;;;;5012083;28;20053;-79
2020/12/30 12:03:36;;;;;;;11.25;2.60;;;15.90;71.30;;;;;;5012468;28;20041;-81
2020/12/30 12:06:40;;;;;;;8.27;1.88;;;15.80;71.30;;;;;;5022770;28;20409;-77
2020/12/30 12:09:44;;;;;;;23.00;4.55;;;15.70;72.20;;;;;;5011915;28;20045;-76
2020/12/30 12:12:48;;;;;;;24.73;2.90;;;15.70;73.00;;;;;;5011168;28;20052;-81
2020/12/30 12:15:53;;;;;;;6.25;2.45;;;15.70;72.40;;;;;;5012247;28;20480;-79
2020/12/30 12:18:56;;;;;;;9.55;2.40;;;15.60;72.50;;;;;;5010994;28;20049;-80
2020/12/30 12:22:00;;;;;;;11.38;2.78;;;15.60;72.70;;;;;;5011860;28;20068;-79
2020/12/30 12:25:04;;;;;;;12.55;3.15;;;15.60;73.90;;;;;;5011805;28;20053;-82
2020/12/30 12:28:09;;;;;;;9.35;2.00;;;15.60;73.50;;;;;;5011288;28;20385;-81
2020/12/30 12:31:20;;;;;;;15.93;2.42;;;15.60;73.60;;;;;;5011839;28;20041;-81
2020/12/30 12:34:24;;;;;;;16.77;5.68;;;15.60;74.10;;;;;;5011784;28;20045;-80
2020/12/30 12:37:28;;;;;;;10.10;2.13;;;15.60;74.50;;;;;;5011963;28;20504;-81
2020/12/30 12:40:33;;;;;;;15.45;2.97;;;15.50;74.30;;;;;;5011511;28;20041;-80
2020/12/30 12:43:40;;;;;;;19.45;3.25;;;15.60;74.50;;;;;;5011718;28;20049;-82
2020/12/30 12:46:45;;;;;;;13.55;4.10;;;15.50;70.70;;;;;;5011703;28;20500;-79
2020/12/30 12:49:50;;;;;;;14.50;2.30;;;15.50;68.10;;;;;;5011787;28;20532;-80
2020/12/30 12:52:57;;;;;;;8.65;2.03;;;15.50;68.40;;;;;;5011647;28;20060;-78
2020/12/30 12:56:03;;;;;;;15.82;2.20;;;15.40;67.60;;;;;;5011238;28;20040;-79
2020/12/30 12:59:08;;;;;;;10.20;1.50;;;15.40;67.60;;;;;;5011642;28;20037;-78
2020/12/30 13:02:13;;;;;;;17.27;2.40;;;15.30;67.70;;;;;;5011726;28;20488;-79
2020/12/30 13:05:17;;;;;;;19.23;3.22;;;15.30;67.80;;;;;;5012204;28;20049;-80
2020/12/30 13:08:21;;;;;;;14.15;2.42;;;15.30;68.90;;;;;;5011468;28;20049;-78
2020/12/30 13:11:25;;;;;;;12.38;2.17;;;15.20;69.00;;;;;;5010543;28;20045;-81
2020/12/30 13:14:30;;;;;;;29.50;3.97;;;15.10;69.00;;;;;;5011715;28;20056;-78
2020/12/30 13:17:34;;;;;;;12.45;3.08;;;15.10;70.00;;;;;;5011175;28;20041;-75
2020/12/30 13:20:39;;;;;;;8.90;2.17;;;15.00;70.80;;;;;;5011410;28;20049;-82
2020/12/30 13:23:43;;;;;;;11.90;1.98;;;14.90;72.40;;;;;;5011414;28;20049;-76
2020/12/30 13:26:48;;;;;;;9.55;2.65;;;14.70;75.80;;;;;;5011167;28;20045;-78
2020/12/30 13:29:52;;;;;;;5.85;2.13;;;14.50;75.20;;;;;;5011422;28;20045;-78
2020/12/30 13:32:56;;;;;;;7.18;2.60;;;14.30;75.10;;;;;;5011293;28;20057;-72
2020/12/30 13:35:59;;;;;;;12.13;4.30;;;14.10;78.50;;;;;;5012054;28;20407;-75
2020/12/30 13:39:03;;;;;;;9.00;2.90;;;14.10;80.60;;;;;;5012244;28;20057;-83
2020/12/30 13:42:12;;;;;;;10.45;2.78;;;14.00;81.00;;;;;;5015050;28;20041;-79
2020/12/30 13:45:18;;;;;;;72.65;48.80;;;14.00;79.20;;;;;;5014692;28;20045;-79
2020/12/30 13:48:22;;;;;;;23.33;11.63;;;14.00;77.60;;;;;;5015080;28;20397;-75
2020/12/30 13:51:26;;;;;;;14.43;7.03;;;14.00;77.60;;;;;;5014812;28;20056;-75
2020/12/30 13:54:29;;;;;;;27.80;16.75;;;14.10;76.70;;;;;;5013837;28;20045;-76
2020/12/30 13:57:33;;;;;;;9.45;4.35;;;14.00;77.30;;;;;;5014872;28;20045;-77
2020/12/30 14:00:37;;;;;;;9.05;3.83;;;14.00;77.30;;;;;;5013593;28;20049;-78
2020/12/30 14:03:41;;;;;;;10.48;4.35;;;14.00;76.70;;;;;;5014755;28;20397;-79
2020/12/30 14:06:45;;;;;;;15.70;5.03;;;14.00;78.70;;;;;;5014512;28;20044;-74
2020/12/30 14:09:49;;;;;;;16.58;6.70;;;14.00;78.30;;;;;;5014702;28;20488;-76
2020/12/30 14:12:53;;;;;;;21.92;11.23;;;14.00;79.80;;;;;;5012861;28;20069;-78
2020/12/30 14:15:57;;;;;;;14.43;5.18;;;14.00;80.00;;;;;;5014461;28;20065;-76
2020/12/30 14:19:02;;;;;;;17.85;6.63;;;14.10;80.30;;;;;;5014101;28;20045;-75
2020/12/30 14:22:06;;;;;;;12.65;4.88;;;14.20;81.40;;;;;;5014694;28;20053;-77
2020/12/30 14:25:09;;;;;;;13.55;6.88;;;14.00;81.00;;;;;;5014340;28;20405;-78
2020/12/30 14:28:13;;;;;;;15.20;7.05;;;13.90;82.80;;;;;;5014002;28;20500;-76
2020/12/30 14:31:17;;;;;;;16.80;7.38;;;13.80;81.30;;;;;;5014047;28;20053;-77
2020/12/30 14:34:22;;;;;;;17.25;7.57;;;13.70;82.40;;;;;;5013528;28;20048;-77
2020/12/30 14:37:26;;;;;;;16.08;7.70;;;13.70;83.90;;;;;;5014094;28;20053;-77
2020/12/30 14:40:30;;;;;;;15.70;9.07;;;13.50;82.60;;;;;;5013967;28;20048;-77
2020/12/30 14:43:34;;;;;;;20.80;9.10;;;13.50;82.80;;;;;;5013823;28;20040;-77
2020/12/30 14:46:38;;;;;;;23.52;11.98;;;13.30;83.00;;;;;;5013622;28;20061;-77
2020/12/30 14:49:42;;;;;;;22.52;12.02;;;13.30;84.20;;;;;;5013246;28;20049;-77
2020/12/30 14:52:52;;;;;;;25.13;12.70;;;13.30;83.30;;;;;;5013414;28;20041;-77
2020/12/30 14:55:56;;;;;;;20.17;11.05;;;13.30;83.90;;;;;;5013471;28;20049;-77
2020/12/30 14:59:00;;;;;;;23.48;10.88;;;13.30;84.00;;;;;;5013412;28;20085;-77
2020/12/30 15:02:05;;;;;;;21.33;11.52;;;13.20;83.60;;;;;;5012552;28;20044;-77
2020/12/30 15:05:09;;;;;;;33.55;13.02;;;13.20;84.40;;;;;;5013282;28;20041;-77
2020/12/30 15:08:13;;;;;;;25.38;9.82;;;13.20;83.10;;;;;;5013302;28;20400;-78
2020/12/30 15:11:23;;;;;;;27.13;10.88;;;13.00;85.00;;;;;;5022961;28;20049;-79
2020/12/30 15:14:28;;;;;;;22.60;12.02;;;12.90;86.50;;;;;;5012003;28;20064;-77
2020/12/30 15:17:32;;;;;;;24.67;12.98;;;12.90;88.40;;;;;;5012125;28;20045;-78
2020/12/30 15:20:39;;;;;;;24.42;11.40;;;12.90;87.80;;;;;;5012820;28;20049;-77
2020/12/30 15:23:43;;;;;;;12.88;5.13;;;12.90;88.90;;;;;;5013048;28;20049;-77
2020/12/30 15:26:48;;;;;;;11.88;5.50;;;13.10;85.30;;;;;;5012856;28;20040;-77
2020/12/30 15:29:52;;;;;;;14.77;5.82;;;13.10;81.70;;;;;;5013026;28;20398;-77
2020/12/30 15:32:55;;;;;;;11.18;4.78;;;13.00;82.20;;;;;;5012872;28;20069;-77
2020/12/30 15:35:59;;;;;;;8.82;5.05;;;13.00;81.20;;;;;;5012661;28;20036;-78
2020/12/30 15:39:04;;;;;;;14.32;4.78;;;12.90;81.90;;;;;;5011484;28;20114;-77
2020/12/30 15:42:08;;;;;;;16.02;5.63;;;12.70;82.40;;;;;;5012544;28;20041;-78
2020/12/30 15:45:12;;;;;;;16.55;5.53;;;12.70;83.00;;;;;;5012647;28;20053;-78
2020/12/30 15:48:16;;;;;;;17.48;6.65;;;12.60;84.00;;;;;;5012938;28;20053;-78
2020/12/30 15:51:20;;;;;;;11.75;6.65;;;12.70;83.70;;;;;;5012598;28;20045;-80
2020/12/30 15:54:24;;;;;;;16.63;8.55;;;12.70;83.60;;;;;;5012144;28;20061;-78
2020/12/30 15:57:29;;;;;;;20.27;11.18;;;12.80;83.50;;;;;;5011493;28;20041;-77